Etusivu
METAR-TAF:

METAR-TAF

Lentoasemat :

Japanese Ground Self Defense Force

Tokachi-Obihiro, Japani

Leveyspiiri: 42-54N, Pituuspiiri: 143-10E, korkeus merenpinnasta: 84 m

Tämänhetkinen sää

Tämä raportti tehtiin 13 tuntia ja 50 minuuttia sitten, kello 02.27 UTC
Tuuli 5 kn lännestä/luoteesta
Lämpötila -1°C
Kosteus 69%
Ilmanpaine 1014 hPa
Näkyvyys 10 km tai enemmän
Muutamia pilviä 1500 ft:n korkeudessa
Hajanaisia pilviä 4000 ft:n korkeudessa

METAR: RJCT 240227Z 30005KT 9999 FEW015 SCT040 M01/M06 Q1014 RMK 2CU015 3CU040 A2995

Aika: 01:17 (16:17 UTC)


TAF: puuttuu

Säähavainnot ja -ennusteet yli 4000 lentoasemalta (METAR- ja TAF-raportit).

Käytössä olevat sääasemat on merkitty karttaan keltaisilla ja punaisilla pisteillä.

Aseta hiiri pisteen päälle nähdäksesi sääaseman nimen.

Klikkaa sitten nähdäksesi säähavainnot ja -ennusteet.

Kartan vaihtaminen: klikkaa mustalla rastilla varustettuja vihreitä pisteitä, niin voit zoomata sisään; viivalla varustettua vihreää pistettä, niin voit zoomata ulos tai vihreitä nuolia, niin pääset viereisille kartoille.


METAR-TAF: